Nome, AK

8:32 AM AKST on November 28, 2014 (GMT -0900)
Dexter | Change Station
CLOSE
Current Station
Personal Weather Station
Location: Nome, AK
Elevation: 45 ft
Nearby Weather Stations

Elev 45 ft 64.58 °N, 165.27 °W | Updated 1 minute ago

Light Snow
Light Snow Low Drifting Snow
26.7 °F
Feels Like 18 °F
N
8.0
Wind Variable Wind from SSE
Gusts 8.0 mph

Today
High -- | Low -- °F
--% Chance of Precip.
Yesterday
High -- | Low -- °F
Precip. -- in
11:16 AM 4:21 PM
Waxing Crescent, 42% visible
Pressure 29.95 in
Visibility 6.0 miles
Clouds Overcast 600 ft
Windchill 18 °F
Dew Point 27 °F
Humidity 100%
Rainfall 0.00 in
Snow Depth Not available.
UV 0 out of 12
Pollen Not available.
Air Quality Not available.
Flu Activity Not available.
METAR PAOM 281653Z COR 08013KT 6SM -SN DRSN OVC006 M03/M03 A2995 RMK SLP142 P0002 T10281033 VIA AUTODIAL

More Conditions Fewer Conditions

Pressure 29.95 in
Visibility 6.0 miles
Clouds Overcast 600 ft
Windchill 18 °F
Dew Point 27 °F
Humidity 100%
Rainfall 0.00 in
Snow Depth Not available.
UV 0 out of 12
Pollen Not available.
Air Quality Not available.
Flu Activity Not available.
METAR PAOM 281653Z COR 08013KT 6SM -SN DRSN OVC006 M03/M03 A2995 RMK SLP142 P0002 T10281033 VIA AUTODIAL

More Conditions Fewer Conditions

10-Day Weather Forecast

Almanac

Astronomy

Nov. 28, 2014 Rise Set
Actual Time
Civil Twilight
Nautical Twilight
Astronomical Twilight
Moon
Length of Visible Light
Length of Day
Tomorrow will be .
, % of the Moon is Illuminated

Today's Extremes

State Highs State Lows

Community

WunderPhotos

Upload Photos

1,774,244 photos uploaded!

WunderBlogs® & News

Nearby

Air Quality

  Air Quality AQ Index Pollutant
Not available.

Snow Depth

Station Depth Elevation

Earthquake Activity

City Distance Mag. Time & Date
Minimum magnitude displayed is 2.5.

Coastal Water Temperatures

Place Temperature

Nearby Weather Stations